Jasper, NY (14855)

8:50 AM EDT on September 22, 2014 (GMT -0400)
Academy Corners, Deerfield Township, PA | Change Station
CLOSE
Current Station
Personal Weather Station
Location: Knoxville, PA
Elevation: 1224 ft
Nearby Weather Stations

Elev 1224 ft 41.95 °N, 77.43 °W | Updated 1 minute ago

Overcast
Overcast
50.3 °F
Feels Like 50.3 °F
N
1.0
Wind Variable Wind from WSW
Gusts 7.0 mph

Today
High -- | Low -- °F
--% Chance of Precip.
Yesterday
High -- | Low -- °F
Precip. -- in
6:57 AM 7:07 PM
Waning Crescent, 3% visible
Pressure 29.98 in
Visibility 10.0 miles
Clouds Mostly Cloudy 900 ft
Overcast 1400 ft
Dew Point 45 °F
Humidity 83%
Rainfall 0.00 in
Snow Depth Not available.
UV 0.0 out of 12
Pollen 3.20 out of 12
PM2.5 Good
Flu Activity Not available.
METAR KELZ 221156Z AUTO 32010G18KT 10SM BKN009 OVC014 07/06 A2997 RMK AO2 RAE02 CIG 007V013 SLP152 P0000 60003 70017 T00720056 10117 20072 53039

More Conditions Fewer Conditions

Pressure 29.98 in
Visibility 10.0 miles
Clouds Mostly Cloudy 900 ft
Overcast 1400 ft
Dew Point 45 °F
Humidity 83%
Rainfall 0.00 in
Snow Depth Not available.
UV 0.0 out of 12
Pollen 3.20 out of 12
PM2.5 Good
Flu Activity Not available.
METAR KELZ 221156Z AUTO 32010G18KT 10SM BKN009 OVC014 07/06 A2997 RMK AO2 RAE02 CIG 007V013 SLP152 P0000 60003 70017 T00720056 10117 20072 53039

More Conditions Fewer Conditions

10-Day Weather Forecast

Almanac

Astronomy

Sep. 22, 2014 Rise Set
Actual Time 6:57 AM EDT 7:07 PM EDT
Civil Twilight 6:29 AM EDT 7:35 PM EDT
Nautical Twilight 5:56 AM EDT 8:07 PM EDT
Astronomical Twilight 5:23 AM EDT 8:41 PM EDT
Moon 5:23 AM EDT 6:14 PM EDT
Length of Visible Light 13h 05m
Length of Day
12h 09m
Tomorrow will be 2m 49s shorter.
Waning Crescent, 3% of the Moon is Illuminated
Today
Waning Crescent
Sep 24
New
Oct 1
First Quarter
Oct 8
Full
Oct 15
Last Quarter

Today's Extremes

State Highs State Lows

Community

WunderPhotos

Upload Photos

1,755,419 photos uploaded!

Nearby

Air Quality

  Air Quality AQ Index Pollutant
Yesterday Good
OZONE
Yesterday Good
PM2.5
Current Good
PM2.5
Monday Good
OZONE
Monday Good
PM2.5

Snow Depth

Station Depth Elevation
No new snow has been reported.

Earthquake Activity

City Distance Mag. Time & Date
No recent earthquake activity has been reported nearby.
Minimum magnitude displayed is 2.5.

Coastal Water Temperatures

Place Temperature
No Stations Reporting

Nearby Weather Stations